Time;durP1;ratioP1;P1;durP2;ratioP2;P2;SDS_P1;SDS_P2;PMS_P1;PMS_P2;Temp;Humidity;BMP_temperature;BMP_pressure;BME280_temperature;BME280_humidity;BME280_pressure;Samples;Min_cycle;Max_cycle;Signal;HPM_P1;HPM_P2
2023/05/29 00:01:26;;;;;;;14.18;5.30;;;;;;;17.41;53.48;102158.16;5026930;28;20152;-67
2023/05/29 00:03:52;;;;;;;12.13;5.53;;;;;;;17.21;53.84;102163.56;5030412;28;20037;-67
2023/05/29 00:06:19;;;;;;;11.23;5.30;;;;;;;17.25;53.59;102163.88;5028876;28;20033;-67
2023/05/29 00:08:44;;;;;;;10.82;5.05;;;;;;;17.26;53.51;102163.66;5017018;28;20033;-67
2023/05/29 00:11:09;;;;;;;14.93;5.57;;;;;;;17.28;53.26;102163.38;5030240;28;20481;-67
2023/05/29 00:13:35;;;;;;;12.65;5.32;;;;;;;17.18;53.18;102172.53;5014885;28;20112;-67
2023/05/29 00:16:00;;;;;;;11.82;4.35;;;;;;;17.08;52.97;102167.66;5026180;28;20103;-68
2023/05/29 00:18:26;;;;;;;12.07;4.60;;;;;;;17.01;52.95;102168.97;5010464;28;20033;-66
2023/05/29 00:20:53;;;;;;;12.50;4.75;;;;;;;16.96;52.67;102174.53;5018673;28;20095;-66
2023/05/29 00:23:18;;;;;;;13.57;4.25;;;;;;;16.93;52.63;102171.16;5006117;28;20378;-67
2023/05/29 00:25:45;;;;;;;12.95;4.22;;;;;;;16.93;52.77;102189.94;5007459;28;20046;-67
2023/05/29 00:28:12;;;;;;;8.40;4.20;;;;;;;16.85;53.13;102179.19;5007608;28;20692;-67
2023/05/29 00:30:37;;;;;;;16.17;4.80;;;;;;;16.88;52.94;102176.69;5007462;28;20029;-67
2023/05/29 00:33:02;;;;;;;11.23;5.00;;;;;;;16.77;53.20;102186.09;5009165;28;20056;-67
2023/05/29 00:35:28;;;;;;;15.07;4.47;;;;;;;16.84;53.16;102192.38;5007421;28;20105;-67
2023/05/29 00:37:53;;;;;;;10.93;4.70;;;;;;;16.78;53.07;102193.44;5006764;28;20474;-67
2023/05/29 00:40:18;;;;;;;11.23;4.13;;;;;;;16.75;52.61;102188.34;5007001;28;20034;-67
2023/05/29 00:42:44;;;;;;;13.90;5.22;;;;;;;16.65;51.76;102196.59;5006967;28;20022;-68
2023/05/29 00:45:09;;;;;;;18.75;4.93;;;;;;;16.68;51.72;102198.88;5007419;28;20029;-67
2023/05/29 00:47:35;;;;;;;14.13;4.43;;;;;;;16.67;51.55;102192.41;5008362;28;20026;-67
2023/05/29 00:50:01;;;;;;;15.18;4.10;;;;;;;16.67;50.59;102191.56;5025176;28;20033;-67
2023/05/29 00:52:27;;;;;;;16.42;4.10;;;;;;;16.56;50.96;102196.19;5017254;28;20055;-68
2023/05/29 00:54:52;;;;;;;12.00;3.67;;;;;;;16.54;50.59;102194.75;5027760;28;20454;-67
2023/05/29 00:57:18;;;;;;;13.23;4.10;;;;;;;16.50;50.57;102193.59;5026536;28;20033;-67
2023/05/29 00:59:45;;;;;;;15.07;3.83;;;;;;;16.43;50.63;102194.63;5025705;28;20062;-67
2023/05/29 01:02:12;;;;;;;14.88;3.80;;;;;;;16.36;50.72;102210.78;5019313;28;20026;-66
2023/05/29 01:04:38;;;;;;;13.18;3.85;;;;;;;16.32;50.61;102206.81;5014372;28;20113;-66
2023/05/29 01:07:04;;;;;;;11.32;3.33;;;;;;;16.31;50.39;102215.47;5025517;28;20037;-66
2023/05/29 01:09:30;;;;;;;15.50;3.63;;;;;;;16.32;50.41;102211.56;5015775;28;20091;-68
2023/05/29 01:11:55;;;;;;;14.45;3.42;;;;;;;16.22;50.36;102220.66;5009651;28;20025;-67
2023/05/29 01:14:50;;;;;;;15.63;3.28;;;;;;;16.16;50.63;102213.31;5014713;28;20060;-67
2023/05/29 01:17:37;;;;;;;16.23;3.95;;;;;;;16.13;50.40;102216.63;5026245;28;20132;-67
2023/05/29 01:20:29;;;;;;;17.55;3.72;;;;;;;16.15;50.38;102222.78;5013168;28;20409;-67
2023/05/29 01:23:13;;;;;;;10.25;3.33;;;;;;;16.01;50.61;102229.88;5008754;28;20128;-67
2023/05/29 01:25:58;;;;;;;13.50;3.67;;;;;;;16.06;50.57;102225.19;5014909;28;20044;-67
2023/05/29 01:28:28;;;;;;;16.73;3.67;;;;;;;16.04;50.42;102212.56;5008616;28;20069;-67
2023/05/29 01:30:56;;;;;;;14.38;4.18;;;;;;;16.06;50.63;102221.53;5010483;28;20026;-68
2023/05/29 01:33:22;;;;;;;15.82;3.45;;;;;;;16.07;50.48;102234.44;5023194;28;20501;-67
2023/05/29 01:35:50;;;;;;;16.95;4.13;;;;;;;16.02;50.51;102229.59;5026020;28;20038;-67
2023/05/29 01:38:15;;;;;;;17.50;4.00;;;;;;;15.89;50.87;102227.16;5009719;28;20379;-67
2023/05/29 01:40:41;;;;;;;13.88;4.20;;;;;;;15.83;50.87;102228.19;5009883;28;20041;-67
2023/05/29 01:43:07;;;;;;;16.13;4.10;;;;;;;15.78;51.03;102231.75;5010105;28;20034;-67
2023/05/29 01:45:33;;;;;;;18.95;4.47;;;;;;;15.85;50.87;102228.78;5013941;28;20064;-67
2023/05/29 01:47:58;;;;;;;16.02;3.95;;;;;;;15.75;51.02;102223.00;5008734;28;20041;-67
2023/05/29 01:50:25;;;;;;;14.05;3.65;;;;;;;15.69;51.08;102227.69;5012473;28;20385;-67
2023/05/29 01:52:51;;;;;;;18.00;3.65;;;;;;;15.66;51.19;102228.19;5014063;28;20030;-67
2023/05/29 01:55:16;;;;;;;20.13;4.20;;;;;;;15.76;51.18;102224.69;5028739;28;20049;-67
2023/05/29 01:57:43;;;;;;;13.13;3.50;;;;;;;15.70;51.47;102220.97;5019514;28;20042;-68
2023/05/29 02:00:09;;;;;;;12.48;3.00;;;;;;;15.72;51.19;102218.78;5015259;28;20076;-67
2023/05/29 02:02:38;;;;;;;14.77;3.90;;;;;;;15.70;51.22;102224.63;5018638;28;20437;-67
2023/05/29 02:05:05;;;;;;;16.50;3.30;;;;;;;15.57;51.48;102222.13;5013811;28;20045;-67
2023/05/29 02:07:30;;;;;;;11.30;3.20;;;;;;;15.63;51.30;102221.09;5012032;28;20030;-67
2023/05/29 02:09:56;;;;;;;12.07;3.22;;;;;;;15.58;51.46;102223.81;5024973;28;20480;-67
2023/05/29 02:12:21;;;;;;;14.63;4.03;;;;;;;15.65;51.21;102221.75;5028750;28;20040;-67
2023/05/29 02:14:46;;;;;;;16.13;4.10;;;;;;;15.54;51.17;102221.78;5032710;28;20063;-67
2023/05/29 02:17:12;;;;;;;16.60;3.95;;;;;;;15.56;51.31;102230.75;5029914;28;20068;-67
2023/05/29 02:19:37;;;;;;;14.77;4.10;;;;;;;15.46;51.61;102226.69;5018722;28;20060;-68
2023/05/29 02:22:03;;;;;;;14.98;3.72;;;;;;;15.47;51.33;102228.38;5013140;28;20084;-68
2023/05/29 02:24:28;;;;;;;12.48;3.60;;;;;;;15.40;51.30;102229.63;5016796;28;20496;-67
2023/05/29 02:26:54;;;;;;;13.90;3.42;;;;;;;15.40;51.44;102224.88;5023482;28;20113;-68
2023/05/29 02:29:20;;;;;;;12.82;3.53;;;;;;;15.36;51.48;102234.03;5012427;28;20367;-67
2023/05/29 02:31:45;;;;;;;14.85;3.70;;;;;;;15.24;51.75;102234.09;5017950;28;20401;-67
2023/05/29 02:34:11;;;;;;;9.77;3.50;;;;;;;15.18;51.80;102229.53;5026097;28;20029;-67
2023/05/29 02:36:37;;;;;;;16.65;3.70;;;;;;;15.25;51.91;102234.94;5014410;28;20029;-68
2023/05/29 02:39:02;;;;;;;15.95;3.60;;;;;;;15.08;52.09;102230.16;5012347;28;20489;-68
2023/05/29 02:41:28;;;;;;;15.15;3.63;;;;;;;15.13;52.07;102244.28;5012642;28;20165;-68
2023/05/29 02:43:53;;;;;;;16.90;3.95;;;;;;;15.13;52.16;102237.81;5011797;28;20034;-67
2023/05/29 02:46:19;;;;;;;13.63;3.42;;;;;;;15.16;52.00;102240.94;5013588;28;20455;-67
2023/05/29 02:48:45;;;;;;;13.50;3.70;;;;;;;15.09;51.98;102245.00;5018470;28;20040;-67
2023/05/29 02:51:10;;;;;;;16.40;3.80;;;;;;;15.10;52.00;102241.13;5012601;28;20025;-68
2023/05/29 02:53:36;;;;;;;12.48;2.97;;;;;;;15.00;52.03;102246.50;5011133;28;20445;-68
2023/05/29 02:56:01;;;;;;;12.40;3.20;;;;;;;15.01;51.95;102245.41;5011987;28;20034;-67
2023/05/29 02:58:27;;;;;;;16.30;3.05;;;;;;;14.93;52.41;102250.31;5012032;28;20060;-67
2023/05/29 03:00:52;;;;;;;14.27;3.65;;;;;;;14.94;52.19;102252.00;5011112;28;20478;-67
2023/05/29 03:03:18;;;;;;;11.98;3.53;;;;;;;14.90;52.03;102249.94;5010945;28;20564;-67
2023/05/29 03:05:43;;;;;;;13.88;3.40;;;;;;;14.86;52.13;102249.59;5019669;28;20036;-68
2023/05/29 03:08:08;;;;;;;17.40;3.53;;;;;;;14.80;52.16;102244.97;5030751;28;20493;-68
2023/05/29 03:10:34;;;;;;;15.55;3.35;;;;;;;14.78;52.56;102254.72;5025727;28;20483;-68
2023/05/29 03:12:59;;;;;;;14.95;3.42;;;;;;;14.80;52.14;102249.72;5027405;28;20104;-68
2023/05/29 03:15:24;;;;;;;11.73;3.58;;;;;;;14.74;52.40;102246.00;5025573;28;20096;-67
2023/05/29 03:17:49;;;;;;;12.25;3.05;;;;;;;14.82;52.09;102253.13;5021338;28;20057;-67
2023/05/29 03:20:15;;;;;;;18.65;3.63;;;;;;;14.83;52.20;102250.09;5026760;28;20034;-68
2023/05/29 03:22:41;;;;;;;17.35;3.90;;;;;;;14.84;52.36;102245.34;5010133;28;20033;-68
2023/05/29 03:25:07;;;;;;;14.00;3.70;;;;;;;14.85;52.50;102242.28;5011357;28;20058;-67
2023/05/29 03:27:32;;;;;;;19.75;3.97;;;;;;;14.72;52.67;102248.16;5010345;28;20417;-67
2023/05/29 03:29:58;;;;;;;18.13;3.60;;;;;;;14.69;52.82;102248.66;5011606;28;20034;-68
2023/05/29 03:32:24;;;;;;;13.82;3.25;;;;;;;14.72;52.77;102250.97;5022962;28;20080;-68
2023/05/29 03:34:49;;;;;;;13.57;3.22;;;;;;;14.72;52.89;102246.22;5012981;28;20025;-67
2023/05/29 03:37:15;;;;;;;15.02;3.22;;;;;;;14.61;53.00;102251.84;5011248;28;20044;-67
2023/05/29 03:39:40;;;;;;;13.77;3.40;;;;;;;14.55;53.49;102244.44;5009929;28;20070;-68
2023/05/29 03:42:06;;;;;;;15.90;3.70;;;;;;;14.56;53.47;102254.53;5011323;28;20100;-68
2023/05/29 03:44:31;;;;;;;14.48;3.25;;;;;;;14.57;53.26;102257.06;5023915;28;20021;-67
2023/05/29 03:46:56;;;;;;;15.63;3.70;;;;;;;14.44;53.59;102258.16;5030334;28;20125;-67
2023/05/29 03:49:22;;;;;;;11.93;3.45;;;;;;;14.54;53.60;102263.16;5028039;28;20503;-68
2023/05/29 03:51:47;;;;;;;19.48;3.85;;;;;;;14.51;53.40;102260.84;5017127;28;20029;-67
2023/05/29 03:54:12;;;;;;;15.57;3.50;;;;;;;14.53;53.82;102263.38;5028386;28;20075;-68
2023/05/29 03:56:38;;;;;;;15.70;3.35;;;;;;;14.49;53.85;102271.41;5020743;28;20458;-67
2023/05/29 03:59:03;;;;;;;16.35;3.75;;;;;;;14.37;54.25;102274.19;5009346;28;20480;-67
2023/05/29 04:01:28;;;;;;;15.95;3.65;;;;;;;14.49;53.79;102269.47;5016832;28;20068;-68
2023/05/29 04:03:54;;;;;;;12.68;3.25;;;;;;;14.31;54.16;102272.38;5010844;28;20018;-67
2023/05/29 04:06:20;;;;;;;14.63;3.60;;;;;;;14.34;54.44;102269.06;5014953;28;20124;-67
2023/05/29 04:08:45;;;;;;;13.48;3.13;;;;;;;14.41;54.38;102275.38;5009727;28;20034;-67
2023/05/29 04:11:11;;;;;;;19.48;3.92;;;;;;;14.37;54.47;102288.16;5021090;28;20029;-67
2023/05/29 04:13:37;;;;;;;21.30;4.07;;;;;;;14.34;54.73;102285.84;5028622;28;20038;-67
2023/05/29 04:16:03;;;;;;;19.40;4.07;;;;;;;14.34;54.30;102279.41;5025980;28;20060;-67
2023/05/29 04:18:28;;;;;;;16.63;3.63;;;;;;;14.37;54.16;102285.34;5023753;28;20070;-67
2023/05/29 04:20:54;;;;;;;14.68;3.50;;;;;;;14.33;54.34;102291.69;5010616;28;20033;-68
2023/05/29 04:23:19;;;;;;;20.67;3.80;;;;;;;14.35;54.68;102286.72;5020031;28;20539;-68
2023/05/29 04:25:45;;;;;;;14.07;3.60;;;;;;;14.37;54.52;102290.94;5010053;28;20029;-68
2023/05/29 04:28:10;;;;;;;12.60;3.40;;;;;;;14.43;54.19;102291.94;5010648;28;20092;-68
2023/05/29 04:30:36;;;;;;;12.65;3.17;;;;;;;14.40;54.12;102287.66;5023010;28;20048;-68
2023/05/29 04:33:02;;;;;;;15.40;3.40;;;;;;;14.38;54.33;102289.00;5017823;28;20041;-67
2023/05/29 04:35:30;;;;;;;15.50;3.60;;;;;;;14.40;54.01;102301.63;5028855;28;20034;-67
2023/05/29 04:37:56;;;;;;;18.75;3.13;;;;;;;14.41;54.41;102292.16;5029371;28;20029;-67
2023/05/29 04:40:22;;;;;;;20.27;3.78;;;;;;;14.38;54.52;102297.38;5030608;28;20088;-68
2023/05/29 04:42:47;;;;;;;13.93;3.25;;;;;;;14.39;54.11;102294.34;5018778;28;20033;-67
2023/05/29 04:45:13;;;;;;;14.82;3.55;;;;;;;14.24;54.81;102297.63;5011996;28;20026;-68
2023/05/29 04:47:43;;;;;;;16.13;3.67;;;;;;;14.31;54.66;102303.09;5017468;28;20026;-68
2023/05/29 04:50:12;;;;;;;15.13;3.78;;;;;;;14.31;54.43;102303.09;5020917;28;20535;-68
2023/05/29 04:52:38;;;;;;;12.77;3.10;;;;;;;14.35;54.18;102307.09;5009905;28;20053;-68
2023/05/29 04:55:04;;;;;;;17.27;3.40;;;;;;;14.34;54.39;102294.22;5009939;28;20372;-68
2023/05/29 04:57:30;;;;;;;17.83;3.53;;;;;;;14.33;54.04;102295.31;5015130;28;20060;-68
2023/05/29 04:59:55;;;;;;;15.65;3.55;;;;;;;14.38;54.06;102298.25;5029268;28;20025;-69
2023/05/29 05:02:20;;;;;;;15.55;3.80;;;;;;;14.29;54.47;102299.69;5015523;28;20808;-68
2023/05/29 05:04:46;;;;;;;21.35;3.78;;;;;;;14.34;54.38;102305.38;5009740;28;20034;-68
2023/05/29 05:07:12;;;;;;;18.73;3.60;;;;;;;14.27;54.07;102296.31;5021456;28;20036;-68
2023/05/29 05:09:38;;;;;;;13.77;3.80;;;;;;;14.24;54.54;102299.56;5025201;28;20021;-68
2023/05/29 05:12:03;;;;;;;18.13;3.50;;;;;;;14.29;54.64;102310.00;5008949;28;20034;-68
2023/05/29 05:14:29;;;;;;;21.80;3.92;;;;;;;14.26;54.39;102305.75;5010260;28;20105;-68
2023/05/29 05:16:54;;;;;;;14.55;3.17;;;;;;;14.38;54.19;102308.53;5015963;28;20409;-68
2023/05/29 05:19:20;;;;;;;15.65;3.28;;;;;;;14.40;54.16;102311.97;5022799;28;20033;-68
2023/05/29 05:21:45;;;;;;;17.90;3.83;;;;;;;14.37;53.99;102316.09;5017991;28;20033;-68
2023/05/29 05:24:10;;;;;;;15.73;3.45;;;;;;;14.36;54.26;102311.59;5016995;28;20065;-68
2023/05/29 05:26:36;;;;;;;16.92;3.78;;;;;;;14.44;54.27;102321.56;5024866;28;20112;-68
2023/05/29 05:29:01;;;;;;;20.67;3.63;;;;;;;14.43;54.07;102320.72;5022316;28;20118;-68
2023/05/29 05:31:26;;;;;;;13.10;3.13;;;;;;;14.42;53.72;102313.44;5013546;28;20145;-68
2023/05/29 05:33:52;;;;;;;17.88;3.67;;;;;;;14.41;53.97;102336.00;5012818;28;20030;-68
2023/05/29 05:36:18;;;;;;;17.63;4.15;;;;;;;14.45;53.56;102328.84;5026442;28;20057;-68
2023/05/29 05:38:43;;;;;;;19.13;4.18;;;;;;;14.40;53.84;102332.38;5024069;28;20076;-68
2023/05/29 05:41:09;;;;;;;16.00;3.75;;;;;;;14.36;54.16;102333.09;5033873;28;20033;-68
2023/05/29 05:43:34;;;;;;;18.92;3.58;;;;;;;14.38;54.21;102325.31;5029202;28;20087;-68
2023/05/29 05:45:59;;;;;;;17.08;3.35;;;;;;;14.42;53.88;102330.19;5022030;28;20478;-68
2023/05/29 05:48:25;;;;;;;18.83;3.63;;;;;;;14.53;53.60;102333.25;5013722;28;20083;-68
2023/05/29 05:50:50;;;;;;;15.20;3.28;;;;;;;14.60;53.65;102340.41;5016471;28;20081;-68
2023/05/29 05:53:16;;;;;;;21.70;4.28;;;;;;;14.61;53.33;102330.06;5023140;28;20029;-68
2023/05/29 05:55:42;;;;;;;18.85;4.10;;;;;;;14.56;53.24;102328.03;5013527;28;20038;-68
2023/05/29 05:58:07;;;;;;;20.33;4.03;;;;;;;14.44;53.45;102319.59;5011741;28;20037;-68
2023/05/29 06:00:32;;;;;;;17.48;3.70;;;;;;;14.48;53.52;102323.63;5014956;28;20030;-68
2023/05/29 06:02:59;;;;;;;17.02;3.92;;;;;;;14.44;53.48;102325.19;5024130;28;20067;-68
2023/05/29 06:05:24;;;;;;;23.30;3.85;;;;;;;14.37;53.69;102318.88;5023206;28;20079;-68
2023/05/29 06:07:49;;;;;;;20.42;3.60;;;;;;;14.39;53.76;102316.69;5032503;28;20026;-68
2023/05/29 06:10:15;;;;;;;20.23;3.67;;;;;;;14.43;53.25;102306.75;5017944;28;20026;-68
2023/05/29 06:12:40;;;;;;;14.82;3.05;;;;;;;14.43;52.95;102322.66;5032779;28;20535;-68
2023/05/29 06:15:06;;;;;;;17.23;3.47;;;;;;;14.51;52.79;102332.66;5024169;28;20593;-68
2023/05/29 06:17:32;;;;;;;17.42;3.78;;;;;;;14.43;52.57;102337.47;5016379;28;20143;-67
2023/05/29 06:19:57;;;;;;;19.08;3.88;;;;;;;14.46;52.97;102338.91;5021044;28;20111;-68
2023/05/29 06:22:23;;;;;;;17.98;3.53;;;;;;;14.51;52.49;102336.28;5012518;28;20117;-68
2023/05/29 06:24:48;;;;;;;17.90;3.58;;;;;;;14.55;52.37;102347.84;5020452;28;20104;-68
2023/05/29 06:27:13;;;;;;;17.88;3.90;;;;;;;14.60;52.79;102339.56;5012496;28;20454;-68
2023/05/29 06:29:38;;;;;;;19.75;3.33;;;;;;;14.59;52.32;102349.03;5011494;28;20374;-68
2023/05/29 06:32:04;;;;;;;19.67;4.07;;;;;;;14.54;52.93;102346.09;5013394;28;20029;-69
2023/05/29 06:34:30;;;;;;;16.33;3.13;;;;;;;14.55;52.80;102357.06;5012353;28;20026;-68
2023/05/29 06:36:55;;;;;;;17.17;3.80;;;;;;;14.58;52.48;102352.91;5022548;28;20056;-68
2023/05/29 06:39:20;;;;;;;17.63;3.40;;;;;;;14.72;52.45;102355.22;5015620;28;20030;-68
2023/05/29 06:41:46;;;;;;;14.77;3.10;;;;;;;14.81;52.92;102357.63;5015245;28;20026;-68
2023/05/29 06:44:22;;;;;;;20.25;3.75;;;;;;;14.93;52.44;102356.56;5013407;28;20552;-68
2023/05/29 06:46:47;;;;;;;15.82;3.30;;;;;;;15.06;51.96;102354.56;5015538;28;20196;-68
2023/05/29 06:49:13;;;;;;;15.77;3.50;;;;;;;15.13;51.59;102353.34;5017281;28;20112;-68
2023/05/29 06:51:38;;;;;;;16.90;3.47;;;;;;;15.22;51.10;102348.19;5012028;28;20041;-68
2023/05/29 06:54:03;;;;;;;14.60;3.45;;;;;;;15.23;51.14;102353.53;5028593;28;20021;-68
2023/05/29 06:56:30;;;;;;;13.27;3.13;;;;;;;15.32;50.86;102356.78;5023437;28;20037;-68
2023/05/29 06:58:55;;;;;;;13.98;3.55;;;;;;;15.30;50.39;102359.00;5031801;28;20021;-68
2023/05/29 07:01:20;;;;;;;12.85;3.08;;;;;;;15.32;50.25;102356.78;5031551;28;20083;-66
2023/05/29 07:03:46;;;;;;;15.30;3.25;;;;;;;15.39;50.27;102356.66;5026008;28;20053;-67
2023/05/29 07:06:12;;;;;;;16.73;3.30;;;;;;;15.40;49.21;102356.38;5008928;28;20033;-68
2023/05/29 07:08:37;;;;;;;13.52;3.75;;;;;;;15.41;49.83;102346.91;5011717;28;20045;-66
2023/05/29 07:11:02;;;;;;;18.58;3.20;;;;;;;15.52;49.65;102359.13;5011523;28;20049;-67
2023/05/29 07:13:28;;;;;;;17.35;2.92;;;;;;;15.57;49.79;102355.63;5012519;28;20030;-68
2023/05/29 07:15:53;;;;;;;8.25;2.53;;;;;;;15.54;48.71;102356.97;5019451;28;20036;-67
2023/05/29 07:18:18;;;;;;;15.05;3.05;;;;;;;15.47;48.86;102365.50;5025991;28;20030;-68
2023/05/29 07:20:44;;;;;;;12.40;3.00;;;;;;;15.52;49.24;102358.31;5011922;28;20121;-69
2023/05/29 07:23:09;;;;;;;16.63;3.20;;;;;;;15.57;49.31;102355.63;5018431;28;20033;-68
2023/05/29 07:25:35;;;;;;;14.88;3.33;;;;;;;15.67;48.80;102359.47;5026079;28;20453;-70
2023/05/29 07:28:00;;;;;;;17.27;3.25;;;;;;;15.75;49.05;102358.22;5021490;28;20033;-69
2023/05/29 07:30:25;;;;;;;14.43;3.45;;;;;;;15.79;49.05;102362.22;5013881;28;20504;-66
2023/05/29 07:32:51;;;;;;;16.75;3.30;;;;;;;15.83;48.67;102359.75;5025786;28;20384;-68
2023/05/29 07:35:16;;;;;;;20.55;3.00;;;;;;;15.92;48.41;102358.28;5010914;28;20028;-68
2023/05/29 07:37:41;;;;;;;13.52;3.13;;;;;;;16.01;48.78;102361.50;5010091;28;20042;-68
2023/05/29 07:40:07;;;;;;;16.38;3.10;;;;;;;16.10;48.08;102365.56;5019478;28;20033;-68
2023/05/29 07:42:33;;;;;;;11.05;2.85;;;;;;;16.12;48.36;102364.22;5018092;28;20041;-69
2023/05/29 07:44:59;;;;;;;15.48;3.33;;;;;;;16.18;47.90;102373.56;5028014;28;20029;-68
2023/05/29 07:47:24;;;;;;;17.92;3.15;;;;;;;16.27;48.61;102372.06;5030765;28;20025;-68
2023/05/29 07:49:50;;;;;;;16.25;3.47;;;;;;;16.34;47.50;102377.47;5028760;28;20033;-68
2023/05/29 07:52:15;;;;;;;13.05;3.10;;;;;;;16.35;47.40;102380.03;5025447;28;20076;-69
2023/05/29 07:54:41;;;;;;;16.08;3.25;;;;;;;16.38;47.37;102373.06;5026931;28;20042;-67
2023/05/29 07:57:09;;;;;;;18.70;3.47;;;;;;;16.47;47.85;102381.91;5023857;28;20069;-68
2023/05/29 07:59:41;;;;;;;13.35;2.80;;;;;;;16.57;46.90;102379.25;5010460;28;20033;-68
2023/05/29 08:02:06;;;;;;;16.57;3.23;;;;;;;16.53;46.05;102386.47;5010563;28;20032;-67
2023/05/29 08:04:32;;;;;;;13.10;2.95;;;;;;;16.54;46.02;102382.56;5016296;28;20029;-67
2023/05/29 08:06:58;;;;;;;8.07;2.30;;;;;;;16.56;45.67;102384.00;5011321;28;20021;-67
2023/05/29 08:09:23;;;;;;;10.82;2.80;;;;;;;16.56;46.05;102388.75;5010289;28;20065;-67
2023/05/29 08:11:49;;;;;;;12.85;3.20;;;;;;;16.54;45.65;102377.78;5010856;28;20026;-67
2023/05/29 08:14:15;;;;;;;12.77;3.05;;;;;;;16.59;45.85;102379.84;5010098;28;20034;-67
2023/05/29 08:16:40;;;;;;;10.55;3.30;;;;;;;16.65;46.57;102384.41;5015040;28;20045;-67
2023/05/29 08:19:06;;;;;;;14.05;3.70;;;;;;;16.74;47.05;102380.13;5014113;28;20501;-67
2023/05/29 08:21:32;;;;;;;14.32;3.53;;;;;;;16.79;46.42;102373.72;5016263;28;20036;-67
2023/05/29 08:23:58;;;;;;;13.00;3.38;;;;;;;16.86;46.11;102380.84;5030735;28;20448;-68
2023/05/29 08:26:23;;;;;;;14.15;3.28;;;;;;;16.92;45.51;102382.63;5024621;28;20100;-67
2023/05/29 08:28:48;;;;;;;15.18;3.38;;;;;;;17.01;45.59;102390.56;5010147;28;20152;-67
2023/05/29 08:31:14;;;;;;;13.15;3.00;;;;;;;17.02;44.76;102395.94;5010808;28;20063;-67
2023/05/29 08:33:39;;;;;;;11.43;3.10;;;;;;;17.02;44.88;102395.94;5007743;28;20040;-67
2023/05/29 08:36:05;;;;;;;11.00;3.75;;;;;;;17.02;45.30;102389.50;5021483;28;20033;-67
2023/05/29 08:38:30;;;;;;;9.57;2.67;;;;;;;17.12;45.52;102398.03;5029988;28;20438;-67
2023/05/29 08:40:57;;;;;;;14.10;3.05;;;;;;;17.11;45.00;102399.16;5030028;28;20139;-66
2023/05/29 08:43:25;;;;;;;13.75;3.50;;;;;;;17.05;45.00;102397.38;5030019;28;20107;-67
2023/05/29 08:45:54;;;;;;;14.70;3.30;;;;;;;17.07;45.09;102398.81;5025463;28;20033;-63
2023/05/29 08:48:24;;;;;;;12.98;2.78;;;;;;;17.06;45.12;102399.94;5008770;28;20116;-63
2023/05/29 08:50:52;;;;;;;9.82;2.65;;;;;;;17.07;45.17;102398.81;5012574;28;20057;-62
2023/05/29 08:53:19;;;;;;;13.15;3.20;;;;;;;17.12;44.90;102406.44;5010185;28;20041;-66
2023/05/29 08:55:46;;;;;;;11.70;3.13;;;;;;;17.11;44.95;102401.97;5009930;28;20021;-67
2023/05/29 08:58:13;;;;;;;13.40;3.00;;;;;;;17.11;45.10;102401.97;5010000;28;20030;-67
2023/05/29 09:00:40;;;;;;;16.38;2.65;;;;;;;17.07;44.35;102396.00;5012007;28;20072;-67
2023/05/29 09:03:06;;;;;;;9.77;2.50;;;;;;;17.14;45.35;102404.25;5013891;28;20025;-67
2023/05/29 09:05:32;;;;;;;12.60;3.20;;;;;;;17.20;44.90;102407.97;5013336;28;20034;-67
2023/05/29 09:07:58;;;;;;;11.70;2.97;;;;;;;17.21;44.78;102410.50;5021139;28;20052;-67
2023/05/29 09:10:25;;;;;;;10.73;3.13;;;;;;;17.28;44.87;102407.50;5024350;28;20108;-67
2023/05/29 09:12:51;;;;;;;10.20;3.00;;;;;;;17.26;44.80;102413.38;5014383;28;20029;-67
2023/05/29 09:15:19;;;;;;;12.55;2.75;;;;;;;17.30;44.51;102402.50;5013855;28;20391;-67
2023/05/29 09:17:50;;;;;;;12.60;2.90;;;;;;;17.40;44.46;102417.47;5021960;28;20045;-66
2023/05/29 09:20:17;;;;;;;10.57;2.90;;;;;;;17.43;44.18;102410.50;5032779;28;20025;-67
2023/05/29 09:22:52;;;;;;;10.48;2.97;;;;;;;17.47;44.22;102417.31;5024661;28;20060;-68
2023/05/29 09:25:21;;;;;;;14.40;3.00;;;;;;;17.58;44.17;102405.09;5019153;28;20037;-68
2023/05/29 09:27:46;;;;;;;10.77;2.90;;;;;;;17.65;44.23;102399.28;5034059;28;20029;-67
2023/05/29 09:30:30;;;;;;;8.90;2.58;;;;;;;17.76;44.47;102398.28;5032844;28;20537;-68
2023/05/29 09:32:56;;;;;;;9.70;2.58;;;;;;;17.80;43.71;102395.81;5033899;28;20140;-67
2023/05/29 09:35:21;;;;;;;11.63;2.90;;;;;;;17.84;43.25;102394.16;5033041;28;20104;-67
2023/05/29 09:37:46;;;;;;;8.43;2.50;;;;;;;17.86;43.17;102389.97;5031710;28;20053;-67
2023/05/29 09:40:12;;;;;;;11.63;3.40;;;;;;;17.87;42.63;102386.06;5028222;28;20033;-66
2023/05/29 09:42:37;;;;;;;9.15;2.38;;;;;;;17.90;43.37;102385.53;5027678;28;20033;-68
2023/05/29 09:45:04;;;;;;;10.10;2.83;;;;;;;17.95;42.72;102386.69;5032826;28;20069;-68
2023/05/29 09:47:33;;;;;;;12.98;3.03;;;;;;;17.98;43.12;102392.63;5033268;28;20881;-68
2023/05/29 09:50:00;;;;;;;10.60;2.75;;;;;;;17.97;42.47;102390.94;5033440;28;20144;-67
2023/05/29 09:52:30;;;;;;;12.38;2.97;;;;;;;17.97;42.58;102398.53;5032940;28;20109;-67
2023/05/29 09:54:56;;;;;;;10.32;2.90;;;;;;;18.06;42.80;102388.50;5033119;28;20029;-69
2023/05/29 09:57:24;;;;;;;10.05;3.30;;;;;;;18.04;42.80;102388.78;5016966;28;20030;-68
2023/05/29 09:59:52;;;;;;;13.65;3.25;;;;;;;18.03;42.18;102398.28;5026906;28;20064;-67
2023/05/29 10:02:18;;;;;;;14.60;3.45;;;;;;;17.98;42.78;102397.41;5032929;28;20104;-67
2023/05/29 10:04:46;;;;;;;8.68;2.58;;;;;;;17.98;43.46;102394.59;5033294;28;20037;-67
2023/05/29 10:07:27;;;;;;;9.82;3.03;;;;;;;18.05;43.02;102392.44;5032946;28;20026;-67
2023/05/29 10:09:58;;;;;;;14.27;3.05;;;;;;;18.09;42.83;102399.22;5018899;28;20371;-67
2023/05/29 10:12:25;;;;;;;13.13;2.78;;;;;;;18.22;43.14;102393.13;5031528;28;20520;-67
2023/05/29 10:14:56;;;;;;;12.35;2.95;;;;;;;18.25;42.93;102397.38;5026648;28;20099;-67
2023/05/29 10:17:28;;;;;;;9.98;3.22;;;;;;;18.31;43.39;102383.13;5021816;28;20411;-67
2023/05/29 10:19:58;;;;;;;9.15;2.63;;;;;;;18.39;42.82;102388.25;5012466;28;20022;-67
2023/05/29 10:22:25;;;;;;;13.73;3.42;;;;;;;18.44;42.86;102395.88;5012855;28;20100;-66
2023/05/29 10:24:51;;;;;;;9.13;2.97;;;;;;;18.48;42.50;102390.56;5010068;28;20018;-67
2023/05/29 10:27:18;;;;;;;10.63;3.25;;;;;;;18.46;42.54;102388.00;5012432;28;20050;-67
2023/05/29 10:29:53;;;;;;;11.15;3.33;;;;;;;18.51;43.03;102387.19;5018775;28;20127;-67
2023/05/29 10:32:38;;;;;;;11.68;2.67;;;;;;;18.55;42.75;102385.53;5028204;28;20029;-67
2023/05/29 10:35:20;;;;;;;12.65;3.15;;;;;;;18.63;43.36;102371.00;5021788;28;20481;-67
2023/05/29 10:37:57;;;;;;;14.18;2.80;;;;;;;18.67;42.56;102372.16;5019029;28;20029;-67
2023/05/29 10:40:25;;;;;;;9.98;3.28;;;;;;;18.68;41.55;102376.63;5011533;28;20517;-69
2023/05/29 10:42:58;;;;;;;15.95;3.33;;;;;;;18.73;42.13;102375.84;5031815;28;20367;-68
2023/05/29 10:45:29;;;;;;;11.75;3.00;;;;;;;18.75;41.79;102385.72;5013401;28;20034;-59
2023/05/29 10:47:55;;;;;;;11.20;2.88;;;;;;;18.72;41.56;102376.97;5012937;28;20108;-67
2023/05/29 10:50:36;;;;;;;10.73;3.03;;;;;;;18.75;41.59;102368.84;5012969;28;20543;-66
2023/05/29 10:53:02;;;;;;;7.78;3.22;;;;;;;18.77;41.77;102377.00;5021443;28;20024;-63
2023/05/29 10:55:35;;;;;;;10.20;3.05;;;;;;;18.83;41.66;102379.59;5017400;28;20059;-63
2023/05/29 10:58:08;;;;;;;8.80;2.90;;;;;;;18.82;41.61;102374.22;5029139;28;20033;-66
2023/05/29 11:00:33;;;;;;;11.23;3.05;;;;;;;18.81;41.80;102372.53;5029201;28;20177;-67
2023/05/29 11:03:07;;;;;;;12.40;3.13;;;;;;;18.87;42.39;102375.13;5025931;28;20065;-67
2023/05/29 11:05:32;;;;;;;8.25;2.50;;;;;;;18.92;41.98;102374.28;5013043;28;20034;-69
2023/05/29 11:08:05;;;;;;;12.77;2.90;;;;;;;18.93;40.81;102375.13;5012154;28;20029;-68
2023/05/29 11:10:52;;;;;;;10.95;3.17;;;;;;;18.99;41.75;102363.66;5011757;28;20066;-68
2023/05/29 11:13:51;;;;;;;11.23;3.08;;;;;;;19.00;41.72;102359.69;5010914;28;20037;-68
2023/05/29 11:16:38;;;;;;;9.90;2.80;;;;;;;18.98;41.83;102361.97;5030489;28;20124;-69